NWC9152 USDA-UUWW
Flight info
| Callsign | NWC9152 |
|---|---|
| Flight time | 3h 33m |
| Altitude | 34000 |
| Route | N0460F340 MAMAT N866 ULKAM M131 AMEGO P65 ROMTA |
| Aircraft | A21N/M-VGDW/C |
Departure
| Time | 2026-05-04 23:35 |
|---|---|
| Airport | Sabetta International Airport (USDA) |
Arrival
| Time | 2026-05-05 03:08 |
|---|---|
| Airport | Vnukovo International Airport (UUWW) |
| Time | Latitude | Longitude | Altitude | Speed | Heading |
|---|---|---|---|---|---|
| 2026-05-04 23:12 | 71.21846 | 72.04667 | 61 ft | 0 kts | 335° |
| 2026-05-04 23:28 | 71.21836 | 72.04685 | 61 ft | 2 kts | 335° |
| 2026-05-04 23:28 | 71.21821 | 72.04705 | 61 ft | 2 kts | 335° |
| 2026-05-04 23:28 | 71.21808 | 72.04725 | 61 ft | 2 kts | 315° |
| 2026-05-04 23:28 | 71.21802 | 72.04758 | 61 ft | 2 kts | 268° |
| 2026-05-04 23:29 | 71.21806 | 72.04801 | 61 ft | 2 kts | 244° |
| 2026-05-04 23:29 | 71.21813 | 72.04846 | 61 ft | 2 kts | 245° |
| 2026-05-04 23:29 | 71.21817 | 72.04875 | 61 ft | 0 kts | 245° |
| 2026-05-04 23:30 | 71.21817 | 72.04874 | 61 ft | 0 kts | 245° |
| 2026-05-04 23:31 | 71.21815 | 72.04858 | 61 ft | 2 kts | 245° |
| 2026-05-04 23:31 | 71.21803 | 72.04798 | 61 ft | 4 kts | 223° |
| 2026-05-04 23:31 | 71.21766 | 72.04789 | 61 ft | 7 kts | 162° |
| 2026-05-04 23:31 | 71.21715 | 72.04854 | 61 ft | 9 kts | 155° |
| 2026-05-04 23:32 | 71.21650 | 72.04949 | 61 ft | 11 kts | 151° |
| 2026-05-04 23:32 | 71.21639 | 72.05186 | 61 ft | 14 kts | 69° |
| 2026-05-04 23:32 | 71.21682 | 72.05479 | 61 ft | 16 kts | 65° |
| 2026-05-04 23:32 | 71.21732 | 72.05818 | 61 ft | 18 kts | 65° |
| 2026-05-04 23:33 | 71.21787 | 72.06202 | 61 ft | 21 kts | 66° |
| 2026-05-04 23:33 | 71.21847 | 72.06628 | 61 ft | 23 kts | 67° |
| 2026-05-04 23:33 | 71.21910 | 72.06970 | 61 ft | 16 kts | 39° |
| 2026-05-04 23:33 | 71.21960 | 72.07198 | 61 ft | 9 kts | 137° |
| 2026-05-04 23:34 | 71.21917 | 72.07112 | 61 ft | 0 kts | 246° |
| 2026-05-04 23:34 | 71.21895 | 72.06963 | 61 ft | 34 kts | 246° |
| 2026-05-04 23:34 | 71.21692 | 72.05562 | 61 ft | 106 kts | 245° |
| 2026-05-04 23:35 | 71.21311 | 72.02900 | 97 ft | 156 kts | 245° |
| 2026-05-04 23:35 | 71.20882 | 71.99916 | 727 ft | 151 kts | 245° |
| 2026-05-04 23:35 | 71.20451 | 71.96922 | 1381 ft | 152 kts | 245° |
| 2026-05-04 23:35 | 71.20025 | 71.93975 | 2035 ft | 143 kts | 245° |
| 2026-05-04 23:36 | 71.19610 | 71.91117 | 2288 ft | 147 kts | 246° |
| 2026-05-04 23:36 | 71.19189 | 71.88207 | 2513 ft | 148 kts | 246° |
| 2026-05-04 23:36 | 71.18835 | 71.85216 | 2769 ft | 149 kts | 256° |
| 2026-05-04 23:36 | 71.18698 | 71.82041 | 3025 ft | 148 kts | 263° |
| 2026-05-04 23:37 | 71.18600 | 71.78771 | 3203 ft | 160 kts | 264° |
| 2026-05-04 23:37 | 71.18499 | 71.75143 | 3315 ft | 180 kts | 265° |
| 2026-05-04 23:37 | 71.18389 | 71.70990 | 3399 ft | 207 kts | 265° |
| 2026-05-04 23:37 | 71.18268 | 71.66258 | 3625 ft | 227 kts | 265° |
| 2026-05-04 23:38 | 71.18147 | 71.61488 | 4515 ft | 222 kts | 265° |
| 2026-05-04 23:38 | 71.18019 | 71.56464 | 4780 ft | 246 kts | 265° |
| 2026-05-04 23:38 | 71.17887 | 71.51269 | 5565 ft | 243 kts | 265° |
| 2026-05-04 23:38 | 71.17752 | 71.45995 | 6237 ft | 248 kts | 265° |
| 2026-05-04 23:39 | 71.17614 | 71.40672 | 7002 ft | 249 kts | 265° |
| 2026-05-04 23:39 | 71.17472 | 71.35271 | 7648 ft | 253 kts | 265° |
| 2026-05-04 23:39 | 71.17327 | 71.29821 | 8320 ft | 256 kts | 265° |
| 2026-05-04 23:39 | 71.17178 | 71.24301 | 8956 ft | 258 kts | 265° |
| 2026-05-04 23:40 | 71.17027 | 71.18721 | 9582 ft | 261 kts | 265° |
| 2026-05-04 23:40 | 71.16871 | 71.13057 | 10068 ft | 271 kts | 265° |
| 2026-05-04 23:40 | 71.16703 | 71.06999 | 10155 ft | 294 kts | 265° |
| 2026-05-04 23:40 | 71.16480 | 71.00493 | 10233 ft | 314 kts | 262° |
| 2026-05-04 23:41 | 71.16074 | 70.93697 | 10578 ft | 324 kts | 257° |
| 2026-05-04 23:41 | 71.15485 | 70.87103 | 11223 ft | 324 kts | 253° |
| 2026-05-04 23:41 | 71.14755 | 70.80474 | 11757 ft | 327 kts | 251° |
| 2026-05-04 23:41 | 71.14003 | 70.73799 | 12315 ft | 328 kts | 251° |
| 2026-05-04 23:42 | 71.13242 | 70.67098 | 12838 ft | 331 kts | 251° |
| 2026-05-04 23:42 | 71.12471 | 70.60363 | 13335 ft | 334 kts | 251° |
| 2026-05-04 23:42 | 71.11692 | 70.53587 | 13858 ft | 336 kts | 250° |
| 2026-05-04 23:42 | 71.10915 | 70.46870 | 14364 ft | 337 kts | 250° |
| 2026-05-04 23:43 | 71.10119 | 70.40025 | 14854 ft | 339 kts | 250° |
| 2026-05-04 23:43 | 71.09318 | 70.33165 | 15340 ft | 342 kts | 250° |
| 2026-05-04 23:43 | 71.08508 | 70.26253 | 15847 ft | 343 kts | 250° |
| 2026-05-04 23:43 | 71.07690 | 70.19303 | 16311 ft | 345 kts | 249° |
| 2026-05-04 23:44 | 71.06844 | 70.12347 | 16777 ft | 347 kts | 248° |
| 2026-05-04 23:44 | 71.05980 | 70.05384 | 17251 ft | 349 kts | 248° |
| 2026-05-04 23:44 | 71.05114 | 69.98396 | 17715 ft | 351 kts | 248° |
| 2026-05-04 23:44 | 71.04238 | 69.91322 | 18058 ft | 355 kts | 248° |
| 2026-05-04 23:45 | 71.03361 | 69.84236 | 18599 ft | 354 kts | 248° |
| 2026-05-04 23:45 | 71.02477 | 69.77113 | 18977 ft | 358 kts | 248° |
| 2026-05-04 23:45 | 71.01598 | 69.70044 | 19406 ft | 359 kts | 248° |
| 2026-05-04 23:45 | 71.00703 | 69.62865 | 19839 ft | 360 kts | 248° |
| 2026-05-04 23:46 | 70.99804 | 69.55672 | 20246 ft | 361 kts | 248° |
| 2026-05-04 23:46 | 70.98901 | 69.48477 | 20720 ft | 361 kts | 248° |
| 2026-05-04 23:46 | 70.97989 | 69.41238 | 21038 ft | 364 kts | 248° |
| 2026-05-04 23:46 | 70.97083 | 69.34063 | 21447 ft | 365 kts | 247° |
| 2026-05-04 23:47 | 70.96160 | 69.26785 | 21788 ft | 367 kts | 247° |
| 2026-05-04 23:47 | 70.95228 | 69.19467 | 22131 ft | 369 kts | 247° |
| 2026-05-04 23:47 | 70.94292 | 69.12137 | 22504 ft | 370 kts | 247° |
| 2026-05-04 23:47 | 70.93349 | 69.04788 | 22822 ft | 372 kts | 247° |
| 2026-05-04 23:48 | 70.92400 | 68.97416 | 23109 ft | 374 kts | 247° |
| 2026-05-04 23:48 | 70.91442 | 68.89995 | 23468 ft | 375 kts | 247° |
| 2026-05-04 23:48 | 70.90490 | 68.82660 | 23734 ft | 377 kts | 247° |
| 2026-05-04 23:48 | 70.89519 | 68.75193 | 24066 ft | 378 kts | 247° |
| 2026-05-04 23:49 | 70.88543 | 68.67724 | 24307 ft | 380 kts | 247° |
| 2026-05-04 23:49 | 70.87556 | 68.60196 | 24572 ft | 382 kts | 247° |
| 2026-05-04 23:49 | 70.86562 | 68.52648 | 24818 ft | 384 kts | 247° |
| 2026-05-04 23:49 | 70.85562 | 68.45071 | 25060 ft | 386 kts | 246° |
| 2026-05-04 23:50 | 70.84553 | 68.37457 | 25295 ft | 388 kts | 246° |
| 2026-05-04 23:50 | 70.83536 | 68.29814 | 25524 ft | 390 kts | 246° |
| 2026-05-04 23:50 | 70.82514 | 68.22164 | 25752 ft | 391 kts | 246° |
| 2026-05-04 23:50 | 70.81497 | 68.14578 | 25960 ft | 393 kts | 246° |
| 2026-05-04 23:51 | 70.80460 | 68.06871 | 26170 ft | 395 kts | 246° |
| 2026-05-04 23:51 | 70.79414 | 67.99119 | 26375 ft | 396 kts | 246° |
| 2026-05-04 23:51 | 70.78360 | 67.91347 | 26496 ft | 400 kts | 246° |
| 2026-05-04 23:51 | 70.77296 | 67.83511 | 26721 ft | 401 kts | 246° |
| 2026-05-04 23:52 | 70.76225 | 67.75660 | 26906 ft | 403 kts | 246° |
| 2026-05-04 23:52 | 70.75149 | 67.67803 | 27101 ft | 404 kts | 246° |
| 2026-05-04 23:52 | 70.74069 | 67.59948 | 27327 ft | 405 kts | 246° |
| 2026-05-04 23:52 | 70.72991 | 67.52142 | 27451 ft | 408 kts | 246° |
| 2026-05-04 23:53 | 70.71893 | 67.44211 | 27644 ft | 409 kts | 246° |
| 2026-05-04 23:53 | 70.70776 | 67.36171 | 27818 ft | 410 kts | 246° |
| 2026-05-04 23:53 | 70.69664 | 67.28199 | 27984 ft | 412 kts | 246° |
| 2026-05-04 23:53 | 70.68559 | 67.20308 | 28106 ft | 414 kts | 246° |
| 2026-05-04 23:54 | 70.67432 | 67.12275 | 28292 ft | 415 kts | 246° |
| 2026-05-04 23:54 | 70.66298 | 67.04230 | 28440 ft | 417 kts | 246° |
| 2026-05-04 23:54 | 70.65158 | 66.96168 | 28556 ft | 419 kts | 246° |
| 2026-05-04 23:54 | 70.64010 | 66.88073 | 28728 ft | 420 kts | 246° |
| 2026-05-04 23:55 | 70.62856 | 66.79973 | 28868 ft | 422 kts | 246° |
| 2026-05-04 23:55 | 70.61693 | 66.71834 | 29012 ft | 423 kts | 246° |
| 2026-05-04 23:55 | 70.59350 | 66.55524 | 29291 ft | 425 kts | 246° |
| 2026-05-04 23:56 | 70.58168 | 66.47344 | 29425 ft | 427 kts | 245° |
| 2026-05-04 23:56 | 70.56980 | 66.39154 | 29560 ft | 428 kts | 245° |
| 2026-05-04 23:56 | 70.55802 | 66.31060 | 29678 ft | 429 kts | 245° |
| 2026-05-04 23:56 | 70.54603 | 66.22845 | 29805 ft | 430 kts | 245° |
| 2026-05-04 23:57 | 70.53395 | 66.14604 | 29929 ft | 431 kts | 245° |
| 2026-05-04 23:57 | 70.52185 | 66.06378 | 30139 ft | 430 kts | 245° |
| 2026-05-04 23:57 | 70.50970 | 65.98192 | 30314 ft | 430 kts | 245° |
| 2026-05-04 23:57 | 70.49747 | 65.89991 | 30417 ft | 432 kts | 245° |
| 2026-05-04 23:58 | 70.48442 | 65.82002 | 30593 ft | 431 kts | 243° |
| 2026-05-04 23:58 | 70.47088 | 65.74006 | 30771 ft | 431 kts | 243° |
| 2026-05-04 23:58 | 70.45751 | 65.65981 | 30938 ft | 431 kts | 243° |
| 2026-05-04 23:58 | 70.44432 | 65.57930 | 31074 ft | 432 kts | 244° |
| 2026-05-04 23:59 | 70.43125 | 65.49843 | 31235 ft | 433 kts | 244° |
| 2026-05-04 23:59 | 70.41829 | 65.41745 | 31419 ft | 433 kts | 244° |
| 2026-05-04 23:59 | 70.40540 | 65.33629 | 31592 ft | 433 kts | 244° |
| 2026-05-04 23:59 | 70.39259 | 65.25525 | 31779 ft | 432 kts | 244° |
| 2026-05-05 00:00 | 70.37983 | 65.17423 | 31936 ft | 433 kts | 245° |
| 2026-05-05 00:00 | 70.35432 | 65.01170 | 32242 ft | 433 kts | 245° |
| 2026-05-05 00:00 | 70.34160 | 64.93054 | 32407 ft | 433 kts | 245° |
| 2026-05-05 00:01 | 70.32889 | 64.84951 | 32564 ft | 433 kts | 245° |
| 2026-05-05 00:01 | 70.31614 | 64.76831 | 32725 ft | 433 kts | 245° |
| 2026-05-05 00:01 | 70.30336 | 64.68706 | 32903 ft | 433 kts | 245° |
| 2026-05-05 00:01 | 70.29080 | 64.60743 | 33091 ft | 432 kts | 245° |
| 2026-05-05 00:02 | 70.27806 | 64.52689 | 33229 ft | 433 kts | 245° |
| 2026-05-05 00:02 | 70.26529 | 64.44628 | 33393 ft | 432 kts | 245° |
| 2026-05-05 00:02 | 70.25250 | 64.36589 | 33618 ft | 431 kts | 245° |
| 2026-05-05 00:03 | 70.22681 | 64.20507 | 33718 ft | 432 kts | 245° |
| 2026-05-05 00:03 | 70.20108 | 64.04515 | 33725 ft | 430 kts | 245° |
| 2026-05-05 00:04 | 70.17543 | 63.88707 | 33726 ft | 430 kts | 245° |
| 2026-05-05 00:04 | 70.14949 | 63.72829 | 33726 ft | 431 kts | 244° |
| 2026-05-05 00:05 | 70.12338 | 63.56935 | 33726 ft | 431 kts | 244° |
| 2026-05-05 00:05 | 70.09710 | 63.41061 | 33726 ft | 433 kts | 244° |
| 2026-05-05 00:06 | 70.07064 | 63.25184 | 33726 ft | 433 kts | 244° |
| 2026-05-05 00:06 | 70.04402 | 63.09317 | 33726 ft | 434 kts | 244° |
| 2026-05-05 00:07 | 70.01740 | 62.93580 | 33726 ft | 434 kts | 244° |
| 2026-05-05 00:07 | 69.99046 | 62.77780 | 33726 ft | 431 kts | 244° |
| 2026-05-05 00:08 | 69.96355 | 62.62232 | 33726 ft | 430 kts | 244° |
| 2026-05-05 00:08 | 69.93643 | 62.46642 | 33726 ft | 432 kts | 244° |
| 2026-05-05 00:09 | 69.90939 | 62.31171 | 33725 ft | 431 kts | 244° |
| 2026-05-05 00:09 | 69.88198 | 62.15599 | 33726 ft | 433 kts | 244° |
| 2026-05-05 00:10 | 69.85445 | 62.00054 | 33725 ft | 433 kts | 244° |
| 2026-05-05 00:10 | 69.82677 | 61.84555 | 33726 ft | 433 kts | 243° |
| 2026-05-05 00:11 | 69.79896 | 61.69109 | 33727 ft | 432 kts | 243° |
| 2026-05-05 00:11 | 69.77042 | 61.53810 | 33725 ft | 432 kts | 239° |
| 2026-05-05 00:12 | 69.73739 | 61.39393 | 33726 ft | 432 kts | 238° |
| 2026-05-05 00:12 | 69.70473 | 61.24872 | 33725 ft | 433 kts | 239° |
| 2026-05-05 00:13 | 69.67222 | 61.10084 | 33723 ft | 438 kts | 240° |
| 2026-05-05 00:13 | 69.64022 | 60.95304 | 33723 ft | 437 kts | 241° |
| 2026-05-05 00:14 | 69.60828 | 60.80482 | 33722 ft | 437 kts | 241° |
| 2026-05-05 00:14 | 69.57635 | 60.65649 | 33722 ft | 437 kts | 241° |
| 2026-05-05 00:15 | 69.54444 | 60.50838 | 33722 ft | 437 kts | 241° |
| 2026-05-05 00:15 | 69.51207 | 60.36126 | 33722 ft | 438 kts | 240° |
| 2026-05-05 00:16 | 69.47954 | 60.21424 | 33722 ft | 437 kts | 240° |
| 2026-05-05 00:16 | 69.44734 | 60.06834 | 33722 ft | 438 kts | 240° |
| 2026-05-05 00:17 | 69.41495 | 59.92155 | 33724 ft | 437 kts | 240° |
| 2026-05-05 00:17 | 69.38807 | 59.80001 | 33725 ft | 436 kts | 240° |
| 2026-05-05 00:18 | 69.35568 | 59.65392 | 33724 ft | 436 kts | 240° |
| 2026-05-05 00:18 | 69.32339 | 59.50890 | 33724 ft | 435 kts | 240° |
| 2026-05-05 00:19 | 69.29103 | 59.36436 | 33724 ft | 434 kts | 240° |
| 2026-05-05 00:19 | 69.25878 | 59.22111 | 33724 ft | 434 kts | 240° |
| 2026-05-05 00:20 | 69.22634 | 59.07789 | 33724 ft | 433 kts | 240° |
| 2026-05-05 00:20 | 69.19329 | 58.93604 | 33724 ft | 434 kts | 238° |
| 2026-05-05 00:21 | 69.15867 | 58.79690 | 33723 ft | 433 kts | 239° |
| 2026-05-05 00:21 | 69.12448 | 58.65887 | 33723 ft | 433 kts | 239° |
| 2026-05-05 00:22 | 69.09021 | 58.52022 | 33723 ft | 432 kts | 239° |
| 2026-05-05 00:22 | 69.05600 | 58.38184 | 33723 ft | 432 kts | 239° |
| 2026-05-05 00:23 | 69.02173 | 58.24354 | 33723 ft | 432 kts | 239° |
| 2026-05-05 00:23 | 68.98768 | 58.10660 | 33723 ft | 431 kts | 239° |
| 2026-05-05 00:24 | 68.95341 | 57.96940 | 33722 ft | 430 kts | 239° |
| 2026-05-05 00:24 | 68.91914 | 57.83298 | 33722 ft | 429 kts | 239° |
| 2026-05-05 00:25 | 68.88496 | 57.69688 | 33722 ft | 429 kts | 239° |
| 2026-05-05 00:25 | 68.85103 | 57.56101 | 33722 ft | 428 kts | 239° |
| 2026-05-05 00:26 | 68.81748 | 57.42631 | 33721 ft | 428 kts | 240° |
| 2026-05-05 00:26 | 68.78371 | 57.29077 | 33721 ft | 428 kts | 240° |
| 2026-05-05 00:27 | 68.74989 | 57.15538 | 33721 ft | 428 kts | 239° |
| 2026-05-05 00:27 | 68.71606 | 57.02058 | 33721 ft | 427 kts | 239° |
| 2026-05-05 00:28 | 68.68185 | 56.88668 | 33720 ft | 427 kts | 239° |
| 2026-05-05 00:28 | 68.64797 | 56.75393 | 33720 ft | 427 kts | 239° |
| 2026-05-05 00:29 | 68.61395 | 56.62074 | 33720 ft | 426 kts | 239° |
| 2026-05-05 00:29 | 68.57993 | 56.48784 | 33720 ft | 425 kts | 239° |
| 2026-05-05 00:30 | 68.54598 | 56.35571 | 33719 ft | 424 kts | 239° |
| 2026-05-05 00:30 | 68.51202 | 56.22417 | 33718 ft | 422 kts | 239° |
| 2026-05-05 00:31 | 68.47810 | 56.09340 | 33705 ft | 422 kts | 239° |
| 2026-05-05 00:31 | 68.44429 | 55.96378 | 33704 ft | 422 kts | 239° |
| 2026-05-05 00:32 | 68.41027 | 55.83408 | 33704 ft | 421 kts | 239° |
| 2026-05-05 00:32 | 68.37611 | 55.70457 | 33704 ft | 421 kts | 239° |
| 2026-05-05 00:33 | 68.34203 | 55.57603 | 33705 ft | 422 kts | 239° |
| 2026-05-05 00:33 | 68.30765 | 55.44715 | 33705 ft | 422 kts | 239° |
| 2026-05-05 00:34 | 68.27317 | 55.31865 | 33705 ft | 422 kts | 239° |
| 2026-05-05 00:34 | 68.23853 | 55.19032 | 33706 ft | 422 kts | 239° |
| 2026-05-05 00:35 | 68.20384 | 55.06254 | 33706 ft | 422 kts | 239° |
| 2026-05-05 00:35 | 68.16850 | 54.93698 | 33706 ft | 423 kts | 237° |
| 2026-05-05 00:36 | 68.13275 | 54.81173 | 33704 ft | 422 kts | 238° |
| 2026-05-05 00:36 | 68.09725 | 54.68626 | 33707 ft | 421 kts | 238° |
| 2026-05-05 00:37 | 68.06208 | 54.56139 | 33705 ft | 418 kts | 238° |
| 2026-05-05 00:37 | 68.02731 | 54.43792 | 33710 ft | 418 kts | 238° |
| 2026-05-05 00:38 | 67.99238 | 54.31406 | 33709 ft | 417 kts | 238° |
| 2026-05-05 00:38 | 67.95746 | 54.19064 | 33708 ft | 416 kts | 238° |
| 2026-05-05 00:39 | 67.92257 | 54.06778 | 33712 ft | 417 kts | 238° |
| 2026-05-05 00:39 | 67.88685 | 53.94630 | 33711 ft | 417 kts | 238° |
| 2026-05-05 00:40 | 67.85109 | 53.82477 | 33711 ft | 417 kts | 238° |
| 2026-05-05 00:40 | 67.81570 | 53.70439 | 33710 ft | 416 kts | 238° |
| 2026-05-05 00:41 | 67.78009 | 53.58345 | 33711 ft | 416 kts | 238° |
| 2026-05-05 00:41 | 67.74453 | 53.46303 | 33709 ft | 415 kts | 238° |
| 2026-05-05 00:42 | 67.70902 | 53.34324 | 33710 ft | 414 kts | 238° |
| 2026-05-05 00:42 | 67.67376 | 53.22488 | 33711 ft | 412 kts | 238° |
| 2026-05-05 00:43 | 67.63788 | 53.10699 | 33709 ft | 416 kts | 234° |
| 2026-05-05 00:43 | 67.59519 | 53.00250 | 33710 ft | 419 kts | 229° |
| 2026-05-05 00:44 | 67.55173 | 52.90003 | 33712 ft | 420 kts | 229° |
| 2026-05-05 00:44 | 67.50856 | 52.79856 | 33715 ft | 419 kts | 229° |
| 2026-05-05 00:45 | 67.46504 | 52.69666 | 33712 ft | 419 kts | 229° |
| 2026-05-05 00:45 | 67.42164 | 52.59551 | 33715 ft | 419 kts | 229° |
| 2026-05-05 00:46 | 67.37812 | 52.49452 | 33714 ft | 419 kts | 229° |
| 2026-05-05 00:46 | 67.33445 | 52.39369 | 33713 ft | 418 kts | 229° |
| 2026-05-05 00:47 | 67.29082 | 52.29408 | 33715 ft | 419 kts | 228° |
| 2026-05-05 00:47 | 67.24722 | 52.19531 | 33717 ft | 418 kts | 228° |
| 2026-05-05 00:48 | 67.20349 | 52.09619 | 33737 ft | 418 kts | 228° |
| 2026-05-05 00:48 | 67.15975 | 51.99721 | 33736 ft | 418 kts | 228° |
| 2026-05-05 00:49 | 67.11607 | 51.89860 | 33736 ft | 417 kts | 228° |
| 2026-05-05 00:49 | 67.07273 | 51.80112 | 33736 ft | 417 kts | 228° |
| 2026-05-05 00:50 | 67.02909 | 51.70333 | 33736 ft | 416 kts | 228° |
| 2026-05-05 00:50 | 66.98539 | 51.60589 | 33737 ft | 416 kts | 228° |
| 2026-05-05 00:51 | 66.94160 | 51.50925 | 33737 ft | 416 kts | 228° |
| 2026-05-05 00:51 | 66.89784 | 51.41280 | 33737 ft | 415 kts | 228° |
| 2026-05-05 00:52 | 66.85446 | 51.31710 | 33738 ft | 415 kts | 228° |
| 2026-05-05 00:52 | 66.81079 | 51.22091 | 33738 ft | 415 kts | 228° |
| 2026-05-05 00:53 | 66.76718 | 51.12512 | 33740 ft | 414 kts | 228° |
| 2026-05-05 00:53 | 66.72399 | 51.03061 | 33739 ft | 412 kts | 228° |
| 2026-05-05 00:54 | 66.68047 | 50.93573 | 33739 ft | 413 kts | 228° |
| 2026-05-05 00:54 | 66.63693 | 50.84125 | 33740 ft | 412 kts | 228° |
| 2026-05-05 00:55 | 66.59334 | 50.74709 | 33699 ft | 413 kts | 228° |
| 2026-05-05 00:55 | 66.55002 | 50.65396 | 33637 ft | 411 kts | 228° |
| 2026-05-05 00:56 | 66.50643 | 50.56069 | 33631 ft | 411 kts | 228° |
| 2026-05-05 00:56 | 66.46311 | 50.46844 | 33630 ft | 410 kts | 228° |
| 2026-05-05 00:57 | 66.41954 | 50.37609 | 33629 ft | 410 kts | 228° |
| 2026-05-05 00:57 | 66.37599 | 50.28423 | 33629 ft | 409 kts | 228° |
| 2026-05-05 00:58 | 66.33268 | 50.19331 | 33628 ft | 408 kts | 228° |
| 2026-05-05 00:58 | 66.28921 | 50.10250 | 33627 ft | 407 kts | 228° |
| 2026-05-05 00:59 | 66.24573 | 50.01210 | 33627 ft | 408 kts | 228° |
| 2026-05-05 00:59 | 66.20203 | 49.92159 | 33626 ft | 409 kts | 228° |
| 2026-05-05 01:00 | 66.15834 | 49.83155 | 33625 ft | 409 kts | 228° |
| 2026-05-05 01:00 | 66.11481 | 49.74226 | 33625 ft | 408 kts | 227° |
| 2026-05-05 01:01 | 66.07107 | 49.65297 | 33624 ft | 408 kts | 227° |
| 2026-05-05 01:01 | 66.02722 | 49.56386 | 33623 ft | 408 kts | 227° |
| 2026-05-05 01:02 | 65.98356 | 49.47556 | 33623 ft | 407 kts | 227° |
| 2026-05-05 01:02 | 65.93984 | 49.38766 | 33622 ft | 406 kts | 227° |
| 2026-05-05 01:03 | 65.90346 | 49.31479 | 33621 ft | 405 kts | 227° |
| 2026-05-05 01:03 | 65.85968 | 49.22743 | 33621 ft | 406 kts | 227° |
| 2026-05-05 01:04 | 65.81532 | 49.14148 | 33620 ft | 406 kts | 226° |
| 2026-05-05 01:04 | 65.74906 | 49.01454 | 33619 ft | 405 kts | 226° |
| 2026-05-05 01:05 | 65.70505 | 48.92894 | 33618 ft | 405 kts | 227° |
| 2026-05-05 01:05 | 65.66118 | 48.84323 | 33618 ft | 404 kts | 227° |
| 2026-05-05 01:06 | 65.61746 | 48.75819 | 33617 ft | 403 kts | 227° |
| 2026-05-05 01:06 | 65.57367 | 48.67328 | 33616 ft | 403 kts | 227° |
| 2026-05-05 01:07 | 65.53017 | 48.58890 | 33615 ft | 402 kts | 227° |
| 2026-05-05 01:07 | 65.48655 | 48.50444 | 33614 ft | 402 kts | 227° |
| 2026-05-05 01:08 | 65.44291 | 48.42015 | 33614 ft | 402 kts | 226° |
| 2026-05-05 01:08 | 65.39922 | 48.33608 | 33613 ft | 402 kts | 226° |
| 2026-05-05 01:09 | 65.35548 | 48.25221 | 33612 ft | 402 kts | 226° |
| 2026-05-05 01:09 | 65.31172 | 48.16866 | 33610 ft | 402 kts | 226° |
| 2026-05-05 01:10 | 65.26816 | 48.08586 | 33610 ft | 402 kts | 226° |
| 2026-05-05 01:10 | 65.22439 | 48.00300 | 33609 ft | 401 kts | 226° |
| 2026-05-05 01:11 | 65.18073 | 47.92073 | 33609 ft | 399 kts | 226° |
| 2026-05-05 01:11 | 65.13715 | 47.83897 | 33608 ft | 399 kts | 226° |
| 2026-05-05 01:12 | 65.09349 | 47.75743 | 33607 ft | 398 kts | 226° |
| 2026-05-05 01:12 | 65.04975 | 47.67783 | 33606 ft | 398 kts | 225° |
| 2026-05-05 01:13 | 65.00587 | 47.59773 | 33605 ft | 398 kts | 226° |
| 2026-05-05 01:13 | 64.96220 | 47.51780 | 33604 ft | 397 kts | 226° |
| 2026-05-05 01:14 | 64.91843 | 47.43771 | 33603 ft | 397 kts | 226° |
| 2026-05-05 01:14 | 64.87470 | 47.35785 | 33602 ft | 397 kts | 226° |
| 2026-05-05 01:15 | 64.83137 | 47.27898 | 33601 ft | 396 kts | 226° |
| 2026-05-05 01:15 | 64.78767 | 47.19968 | 33600 ft | 396 kts | 225° |
| 2026-05-05 01:16 | 64.74395 | 47.12070 | 33599 ft | 395 kts | 226° |
| 2026-05-05 01:16 | 64.70049 | 47.04307 | 33616 ft | 395 kts | 225° |
| 2026-05-05 01:17 | 64.65663 | 46.96552 | 33619 ft | 395 kts | 225° |
| 2026-05-05 01:17 | 64.61286 | 46.88800 | 33618 ft | 395 kts | 225° |
| 2026-05-05 01:18 | 64.56911 | 46.81057 | 33617 ft | 394 kts | 225° |
| 2026-05-05 01:18 | 64.52546 | 46.73351 | 33616 ft | 394 kts | 225° |
| 2026-05-05 01:19 | 64.48182 | 46.65670 | 33614 ft | 394 kts | 225° |
| 2026-05-05 01:19 | 64.43838 | 46.58051 | 33613 ft | 393 kts | 225° |
| 2026-05-05 01:20 | 64.39481 | 46.50441 | 33611 ft | 391 kts | 225° |
| 2026-05-05 01:20 | 64.35124 | 46.42859 | 33611 ft | 392 kts | 225° |
| 2026-05-05 01:21 | 64.30765 | 46.35302 | 33609 ft | 392 kts | 225° |
| 2026-05-05 01:21 | 64.26406 | 46.27778 | 33608 ft | 390 kts | 225° |
| 2026-05-05 01:22 | 64.22074 | 46.20330 | 33606 ft | 391 kts | 224° |
| 2026-05-05 01:22 | 64.17705 | 46.12848 | 33606 ft | 391 kts | 224° |
| 2026-05-05 01:23 | 64.13331 | 46.05530 | 33605 ft | 391 kts | 224° |
| 2026-05-05 01:23 | 64.08923 | 45.98176 | 33604 ft | 391 kts | 224° |
| 2026-05-05 01:24 | 64.04531 | 45.90828 | 33603 ft | 391 kts | 224° |
| 2026-05-05 01:24 | 64.00144 | 45.83489 | 33600 ft | 391 kts | 224° |
| 2026-05-05 01:25 | 63.95779 | 45.76199 | 33577 ft | 390 kts | 224° |
| 2026-05-05 01:25 | 63.91383 | 45.68878 | 33574 ft | 391 kts | 224° |
| 2026-05-05 01:26 | 63.86985 | 45.61579 | 33573 ft | 391 kts | 224° |
| 2026-05-05 01:26 | 63.82619 | 45.54359 | 33572 ft | 390 kts | 224° |
| 2026-05-05 01:27 | 63.78232 | 45.47131 | 33572 ft | 390 kts | 224° |
| 2026-05-05 01:27 | 63.73841 | 45.39924 | 33571 ft | 390 kts | 224° |
| 2026-05-05 01:28 | 63.69414 | 45.32795 | 33570 ft | 392 kts | 222° |
| 2026-05-05 01:28 | 63.64897 | 45.25970 | 33570 ft | 391 kts | 222° |
| 2026-05-05 01:29 | 63.60373 | 45.19120 | 33569 ft | 392 kts | 222° |
| 2026-05-05 01:29 | 63.55884 | 45.12322 | 33569 ft | 390 kts | 221° |
| 2026-05-05 01:30 | 63.51372 | 45.05501 | 33569 ft | 391 kts | 221° |
| 2026-05-05 01:30 | 63.46858 | 44.98695 | 33569 ft | 391 kts | 221° |
| 2026-05-05 01:31 | 63.42351 | 44.91920 | 33569 ft | 390 kts | 221° |
| 2026-05-05 01:31 | 63.37873 | 44.85213 | 33569 ft | 390 kts | 221° |
| 2026-05-05 01:32 | 63.33353 | 44.78525 | 33569 ft | 390 kts | 221° |
| 2026-05-05 01:32 | 63.28822 | 44.71880 | 33569 ft | 389 kts | 221° |
| 2026-05-05 01:33 | 63.24290 | 44.65230 | 33569 ft | 389 kts | 221° |
| 2026-05-05 01:33 | 63.19798 | 44.58647 | 33570 ft | 389 kts | 221° |
| 2026-05-05 01:34 | 63.15270 | 44.52028 | 33570 ft | 389 kts | 221° |
| 2026-05-05 01:34 | 63.10746 | 44.45433 | 33571 ft | 389 kts | 221° |
| 2026-05-05 01:35 | 63.06224 | 44.38865 | 33571 ft | 389 kts | 221° |
| 2026-05-05 01:35 | 63.01692 | 44.32305 | 33572 ft | 389 kts | 221° |
| 2026-05-05 01:36 | 62.97161 | 44.25771 | 33572 ft | 389 kts | 221° |
| 2026-05-05 01:36 | 62.92653 | 44.19294 | 33573 ft | 389 kts | 221° |
| 2026-05-05 01:37 | 62.88115 | 44.12797 | 33574 ft | 390 kts | 220° |
| 2026-05-05 01:37 | 62.83566 | 44.06309 | 33575 ft | 390 kts | 220° |
| 2026-05-05 01:38 | 62.79018 | 43.99848 | 33576 ft | 390 kts | 220° |
| 2026-05-05 01:38 | 62.74495 | 43.93446 | 33577 ft | 387 kts | 220° |
| 2026-05-05 01:39 | 62.69961 | 43.87054 | 33579 ft | 388 kts | 220° |
| 2026-05-05 01:39 | 62.65420 | 43.80675 | 33579 ft | 388 kts | 220° |
| 2026-05-05 01:40 | 62.60907 | 43.74358 | 33537 ft | 389 kts | 220° |
| 2026-05-05 01:40 | 62.56329 | 43.68106 | 33501 ft | 388 kts | 219° |
| 2026-05-05 01:41 | 62.51755 | 43.61828 | 33501 ft | 388 kts | 220° |
| 2026-05-05 01:41 | 62.47191 | 43.55542 | 33503 ft | 388 kts | 220° |
| 2026-05-05 01:42 | 62.42634 | 43.49264 | 33505 ft | 388 kts | 220° |
| 2026-05-05 01:42 | 62.38078 | 43.42996 | 33508 ft | 388 kts | 220° |
| 2026-05-05 01:43 | 62.33528 | 43.36752 | 33510 ft | 387 kts | 220° |
| 2026-05-05 01:43 | 62.29007 | 43.30566 | 33513 ft | 388 kts | 219° |
| 2026-05-05 01:44 | 62.24434 | 43.24327 | 33516 ft | 389 kts | 219° |
| 2026-05-05 01:44 | 62.19864 | 43.18117 | 33519 ft | 388 kts | 219° |
| 2026-05-05 01:45 | 62.15333 | 43.11982 | 33522 ft | 388 kts | 219° |
| 2026-05-05 01:45 | 62.10762 | 43.05814 | 33525 ft | 388 kts | 219° |
| 2026-05-05 01:46 | 62.06196 | 42.99675 | 33528 ft | 386 kts | 219° |
| 2026-05-05 01:46 | 62.01662 | 42.93601 | 33531 ft | 387 kts | 219° |
| 2026-05-05 01:47 | 61.97086 | 42.87486 | 33535 ft | 391 kts | 219° |
| 2026-05-05 01:47 | 61.92476 | 42.81350 | 33557 ft | 390 kts | 218° |
| 2026-05-05 01:48 | 61.87859 | 42.75230 | 33599 ft | 391 kts | 218° |
| 2026-05-05 01:48 | 61.83239 | 42.69128 | 33604 ft | 390 kts | 218° |
| 2026-05-05 01:49 | 61.79401 | 42.64076 | 33607 ft | 390 kts | 218° |
| 2026-05-05 01:49 | 61.74033 | 42.57036 | 33609 ft | 391 kts | 218° |
| 2026-05-05 01:50 | 61.70159 | 42.51973 | 33611 ft | 391 kts | 218° |
| 2026-05-05 01:50 | 61.65571 | 42.45997 | 33614 ft | 390 kts | 218° |
| 2026-05-05 01:51 | 61.60956 | 42.40007 | 33616 ft | 390 kts | 218° |
| 2026-05-05 01:51 | 61.56335 | 42.34030 | 33619 ft | 390 kts | 218° |
| 2026-05-05 01:52 | 61.51702 | 42.28112 | 33622 ft | 390 kts | 218° |
| 2026-05-05 01:52 | 61.47077 | 42.22156 | 33624 ft | 390 kts | 218° |
| 2026-05-05 01:53 | 61.42458 | 42.16164 | 33627 ft | 390 kts | 218° |
| 2026-05-05 01:53 | 61.37841 | 42.10160 | 33629 ft | 391 kts | 218° |
| 2026-05-05 01:54 | 61.33216 | 42.04148 | 33632 ft | 392 kts | 218° |
| 2026-05-05 01:54 | 61.28620 | 41.98184 | 33634 ft | 391 kts | 218° |
| 2026-05-05 01:55 | 61.24000 | 41.92206 | 33637 ft | 391 kts | 218° |
| 2026-05-05 01:55 | 61.19364 | 41.86223 | 33640 ft | 392 kts | 218° |
| 2026-05-05 01:56 | 61.14721 | 41.80250 | 33643 ft | 393 kts | 218° |
| 2026-05-05 01:56 | 61.10072 | 41.74290 | 33646 ft | 394 kts | 217° |
| 2026-05-05 01:57 | 61.05409 | 41.68331 | 33648 ft | 395 kts | 217° |
| 2026-05-05 01:57 | 61.00725 | 41.62366 | 33651 ft | 396 kts | 217° |
| 2026-05-05 01:58 | 60.96033 | 41.56411 | 33654 ft | 396 kts | 217° |
| 2026-05-05 01:58 | 60.91364 | 41.50506 | 33657 ft | 397 kts | 217° |
| 2026-05-05 01:59 | 60.86650 | 41.44566 | 33659 ft | 397 kts | 217° |
| 2026-05-05 01:59 | 60.81914 | 41.38702 | 33662 ft | 398 kts | 216° |
| 2026-05-05 02:00 | 60.77162 | 41.32859 | 33664 ft | 398 kts | 217° |
| 2026-05-05 02:00 | 60.72447 | 41.27038 | 33668 ft | 398 kts | 217° |
| 2026-05-05 02:01 | 60.67702 | 41.21175 | 33671 ft | 398 kts | 217° |
| 2026-05-05 02:01 | 60.62959 | 41.15320 | 33673 ft | 399 kts | 217° |
| 2026-05-05 02:02 | 60.58204 | 41.09463 | 33676 ft | 399 kts | 217° |
| 2026-05-05 02:02 | 60.53485 | 41.03668 | 33679 ft | 399 kts | 217° |
| 2026-05-05 02:03 | 60.48736 | 40.97874 | 33682 ft | 398 kts | 216° |
| 2026-05-05 02:03 | 60.43954 | 40.92184 | 33684 ft | 398 kts | 216° |
| 2026-05-05 02:04 | 60.39176 | 40.86500 | 33687 ft | 398 kts | 216° |
| 2026-05-05 02:04 | 60.34400 | 40.80822 | 33690 ft | 398 kts | 216° |
| 2026-05-05 02:05 | 60.29619 | 40.75148 | 33692 ft | 398 kts | 216° |
| 2026-05-05 02:05 | 60.24820 | 40.69493 | 33685 ft | 400 kts | 216° |
| 2026-05-05 02:06 | 60.20053 | 40.63883 | 33629 ft | 399 kts | 216° |
| 2026-05-05 02:06 | 60.15254 | 40.58245 | 33626 ft | 399 kts | 216° |
| 2026-05-05 02:07 | 60.10461 | 40.52625 | 33629 ft | 399 kts | 216° |
| 2026-05-05 02:07 | 60.05664 | 40.47016 | 33633 ft | 399 kts | 216° |
| 2026-05-05 02:08 | 60.00866 | 40.41423 | 33634 ft | 399 kts | 216° |
| 2026-05-05 02:08 | 59.96063 | 40.35839 | 33637 ft | 401 kts | 216° |
| 2026-05-05 02:09 | 59.91282 | 40.30303 | 33639 ft | 399 kts | 216° |
| 2026-05-05 02:09 | 59.86471 | 40.24749 | 33644 ft | 399 kts | 216° |
| 2026-05-05 02:10 | 59.81659 | 40.19212 | 33655 ft | 400 kts | 216° |
| 2026-05-05 02:10 | 59.76792 | 40.13803 | 33659 ft | 400 kts | 214° |
| 2026-05-05 02:11 | 59.71939 | 40.08481 | 33662 ft | 400 kts | 214° |
| 2026-05-05 02:11 | 59.67064 | 40.03139 | 33664 ft | 400 kts | 214° |
| 2026-05-05 02:12 | 59.59737 | 39.95128 | 33669 ft | 400 kts | 214° |
| 2026-05-05 02:13 | 59.54860 | 39.89804 | 33673 ft | 400 kts | 214° |
| 2026-05-05 02:13 | 59.50000 | 39.84560 | 33674 ft | 402 kts | 212° |
| 2026-05-05 02:14 | 59.44888 | 39.79937 | 33678 ft | 404 kts | 210° |
| 2026-05-05 02:14 | 59.39755 | 39.75369 | 33681 ft | 404 kts | 210° |
| 2026-05-05 02:15 | 59.34633 | 39.70819 | 33684 ft | 404 kts | 210° |
| 2026-05-05 02:15 | 59.29524 | 39.66290 | 33688 ft | 405 kts | 210° |
| 2026-05-05 02:16 | 59.24422 | 39.61639 | 33690 ft | 402 kts | 214° |
| 2026-05-05 02:16 | 59.19890 | 39.55414 | 33694 ft | 398 kts | 222° |
| 2026-05-05 02:17 | 59.15491 | 39.48870 | 33696 ft | 398 kts | 221° |
| 2026-05-05 02:17 | 59.11017 | 39.42627 | 33699 ft | 398 kts | 220° |
| 2026-05-05 02:18 | 59.06508 | 39.36350 | 33701 ft | 399 kts | 220° |
| 2026-05-05 02:18 | 59.01986 | 39.30056 | 33704 ft | 399 kts | 220° |
| 2026-05-05 02:19 | 58.97472 | 39.23785 | 33706 ft | 399 kts | 220° |
| 2026-05-05 02:19 | 58.92952 | 39.17519 | 33709 ft | 399 kts | 220° |
| 2026-05-05 02:20 | 58.88460 | 39.11311 | 33711 ft | 399 kts | 220° |
| 2026-05-05 02:20 | 58.83935 | 39.05077 | 33714 ft | 399 kts | 220° |
| 2026-05-05 02:21 | 58.79390 | 38.98892 | 33716 ft | 399 kts | 220° |
| 2026-05-05 02:21 | 58.74849 | 38.92712 | 33719 ft | 399 kts | 220° |
| 2026-05-05 02:22 | 58.70295 | 38.86666 | 33721 ft | 400 kts | 218° |
| 2026-05-05 02:22 | 58.65618 | 38.80875 | 33724 ft | 400 kts | 218° |
| 2026-05-05 02:23 | 58.60929 | 38.75083 | 33726 ft | 400 kts | 218° |
| 2026-05-05 02:23 | 58.56267 | 38.69334 | 33729 ft | 401 kts | 218° |
| 2026-05-05 02:24 | 58.51572 | 38.63561 | 33731 ft | 400 kts | 218° |
| 2026-05-05 02:24 | 58.46881 | 38.57809 | 33734 ft | 400 kts | 217° |
| 2026-05-05 02:25 | 58.42185 | 38.52068 | 33737 ft | 400 kts | 217° |
| 2026-05-05 02:25 | 58.37487 | 38.46342 | 33739 ft | 400 kts | 217° |
| 2026-05-05 02:26 | 58.32807 | 38.40656 | 33742 ft | 401 kts | 217° |
| 2026-05-05 02:26 | 58.28101 | 38.34955 | 33744 ft | 401 kts | 217° |
| 2026-05-05 02:27 | 58.23374 | 38.29247 | 33747 ft | 402 kts | 217° |
| 2026-05-05 02:27 | 58.18668 | 38.23583 | 33749 ft | 402 kts | 217° |
| 2026-05-05 02:28 | 58.13946 | 38.17918 | 33751 ft | 401 kts | 217° |
| 2026-05-05 02:28 | 58.09222 | 38.12269 | 33754 ft | 401 kts | 217° |
| 2026-05-05 02:29 | 58.04527 | 38.06672 | 33756 ft | 401 kts | 217° |
| 2026-05-05 02:29 | 57.99802 | 38.01057 | 33759 ft | 401 kts | 217° |
| 2026-05-05 02:30 | 57.95068 | 37.95450 | 33761 ft | 401 kts | 217° |
| 2026-05-05 02:30 | 57.90337 | 37.89863 | 33763 ft | 401 kts | 217° |
| 2026-05-05 02:31 | 57.85534 | 37.84475 | 33777 ft | 405 kts | 211° |
| 2026-05-05 02:31 | 57.80146 | 37.81099 | 33782 ft | 418 kts | 197° |
| 2026-05-05 02:32 | 57.74432 | 37.79976 | 33781 ft | 399 kts | 192° |
| 2026-05-05 02:32 | 57.71721 | 37.79550 | 33782 ft | 384 kts | 192° |
| 2026-05-05 02:32 | 57.69083 | 37.79136 | 33785 ft | 378 kts | 192° |
| 2026-05-05 02:33 | 57.63797 | 37.78318 | 33791 ft | 383 kts | 192° |
| 2026-05-05 02:33 | 57.58522 | 37.77538 | 33791 ft | 382 kts | 192° |
| 2026-05-05 02:34 | 57.53187 | 37.76764 | 33510 ft | 385 kts | 191° |
| 2026-05-05 02:34 | 57.50522 | 37.76383 | 33260 ft | 383 kts | 191° |
| 2026-05-05 02:34 | 57.47862 | 37.76005 | 33009 ft | 384 kts | 191° |
| 2026-05-05 02:34 | 57.45189 | 37.75643 | 32759 ft | 385 kts | 191° |
| 2026-05-05 02:35 | 57.42514 | 37.75292 | 32509 ft | 386 kts | 191° |
| 2026-05-05 02:35 | 57.39828 | 37.74941 | 32259 ft | 387 kts | 191° |
| 2026-05-05 02:35 | 57.37174 | 37.74596 | 32012 ft | 387 kts | 191° |
| 2026-05-05 02:35 | 57.34477 | 37.74245 | 31762 ft | 389 kts | 191° |
| 2026-05-05 02:36 | 57.31766 | 37.73893 | 31511 ft | 390 kts | 191° |
| 2026-05-05 02:36 | 57.29056 | 37.73540 | 31261 ft | 391 kts | 190° |
| 2026-05-05 02:36 | 57.26335 | 37.73188 | 31011 ft | 392 kts | 190° |
| 2026-05-05 02:36 | 57.23641 | 37.72840 | 30764 ft | 392 kts | 190° |
| 2026-05-05 02:37 | 57.20912 | 37.72488 | 30513 ft | 394 kts | 190° |
| 2026-05-05 02:37 | 57.18168 | 37.72134 | 30264 ft | 396 kts | 190° |
| 2026-05-05 02:37 | 57.15416 | 37.71767 | 30013 ft | 396 kts | 191° |
| 2026-05-05 02:37 | 57.12695 | 37.71132 | 29762 ft | 393 kts | 195° |
| 2026-05-05 02:38 | 57.10891 | 37.70453 | 29593 ft | 391 kts | 199° |
| 2026-05-05 02:38 | 57.08314 | 37.69090 | 29346 ft | 389 kts | 204° |
| 2026-05-05 02:38 | 57.05789 | 37.67336 | 29097 ft | 388 kts | 206° |
| 2026-05-05 02:38 | 57.03281 | 37.65511 | 28846 ft | 387 kts | 206° |
| 2026-05-05 02:39 | 57.00784 | 37.63684 | 28596 ft | 385 kts | 206° |
| 2026-05-05 02:39 | 56.98298 | 37.61860 | 28345 ft | 384 kts | 206° |
| 2026-05-05 02:39 | 56.95816 | 37.60035 | 28094 ft | 383 kts | 206° |
| 2026-05-05 02:39 | 56.93346 | 37.58216 | 27843 ft | 382 kts | 206° |
| 2026-05-05 02:40 | 56.90088 | 37.55817 | 27511 ft | 381 kts | 206° |
| 2026-05-05 02:40 | 56.88425 | 37.54593 | 27342 ft | 380 kts | 206° |
| 2026-05-05 02:40 | 56.85976 | 37.52791 | 27091 ft | 378 kts | 206° |
| 2026-05-05 02:40 | 56.83564 | 37.51016 | 26843 ft | 377 kts | 206° |
| 2026-05-05 02:41 | 56.81134 | 37.49231 | 26593 ft | 376 kts | 206° |
| 2026-05-05 02:41 | 56.78713 | 37.47453 | 26342 ft | 375 kts | 206° |
| 2026-05-05 02:41 | 56.76285 | 37.45674 | 26091 ft | 374 kts | 206° |
| 2026-05-05 02:41 | 56.73873 | 37.43907 | 25840 ft | 373 kts | 206° |
| 2026-05-05 02:42 | 56.71468 | 37.42148 | 25562 ft | 372 kts | 206° |
| 2026-05-05 02:42 | 56.69066 | 37.40393 | 25162 ft | 371 kts | 206° |
| 2026-05-05 02:42 | 56.66684 | 37.38648 | 24761 ft | 367 kts | 206° |
| 2026-05-05 02:42 | 56.64333 | 37.36883 | 24361 ft | 365 kts | 207° |
| 2026-05-05 02:43 | 56.61991 | 37.35117 | 23959 ft | 363 kts | 207° |
| 2026-05-05 02:43 | 56.59666 | 37.33363 | 23558 ft | 361 kts | 207° |
| 2026-05-05 02:43 | 56.57382 | 37.31638 | 23162 ft | 359 kts | 207° |
| 2026-05-05 02:43 | 56.55079 | 37.29901 | 22761 ft | 357 kts | 207° |
| 2026-05-05 02:44 | 56.52778 | 37.28226 | 22359 ft | 355 kts | 205° |
| 2026-05-05 02:44 | 56.50483 | 37.26632 | 21959 ft | 353 kts | 205° |
| 2026-05-05 02:44 | 56.48195 | 37.25048 | 21557 ft | 350 kts | 205° |
| 2026-05-05 02:44 | 56.45925 | 37.23478 | 21156 ft | 347 kts | 205° |
| 2026-05-05 02:45 | 56.43677 | 37.21918 | 20756 ft | 345 kts | 206° |
| 2026-05-05 02:45 | 56.41451 | 37.20320 | 20354 ft | 342 kts | 206° |
| 2026-05-05 02:45 | 56.39249 | 37.18727 | 19953 ft | 340 kts | 206° |
| 2026-05-05 02:45 | 56.37089 | 37.17167 | 19558 ft | 338 kts | 206° |
| 2026-05-05 02:46 | 56.34908 | 37.15593 | 19157 ft | 336 kts | 206° |
| 2026-05-05 02:46 | 56.32750 | 37.14037 | 18893 ft | 332 kts | 206° |
| 2026-05-05 02:46 | 56.30596 | 37.12485 | 18642 ft | 332 kts | 206° |
| 2026-05-05 02:46 | 56.28396 | 37.11160 | 18391 ft | 334 kts | 201° |
| 2026-05-05 02:47 | 56.26171 | 37.09988 | 18140 ft | 333 kts | 201° |
| 2026-05-05 02:47 | 56.23953 | 37.08827 | 17890 ft | 331 kts | 201° |
| 2026-05-05 02:47 | 56.21777 | 37.07688 | 17643 ft | 330 kts | 201° |
| 2026-05-05 02:47 | 56.19568 | 37.06534 | 17392 ft | 328 kts | 201° |
| 2026-05-05 02:48 | 56.17375 | 37.05388 | 17141 ft | 327 kts | 201° |
| 2026-05-05 02:48 | 56.15189 | 37.04249 | 16890 ft | 326 kts | 201° |
| 2026-05-05 02:48 | 56.13012 | 37.03115 | 16640 ft | 325 kts | 201° |
| 2026-05-05 02:48 | 56.10845 | 37.01988 | 16389 ft | 323 kts | 201° |
| 2026-05-05 02:49 | 56.08682 | 37.00865 | 16138 ft | 322 kts | 201° |
| 2026-05-05 02:49 | 56.06532 | 36.99748 | 15888 ft | 322 kts | 201° |
| 2026-05-05 02:49 | 56.04383 | 36.98635 | 15637 ft | 320 kts | 201° |
| 2026-05-05 02:49 | 56.02275 | 36.97545 | 15390 ft | 319 kts | 201° |
| 2026-05-05 02:50 | 56.00150 | 36.96446 | 15140 ft | 318 kts | 201° |
| 2026-05-05 02:50 | 55.97994 | 36.95327 | 14888 ft | 321 kts | 200° |
| 2026-05-05 02:50 | 55.95852 | 36.94338 | 14638 ft | 322 kts | 196° |
| 2026-05-05 02:50 | 55.93641 | 36.93734 | 14389 ft | 322 kts | 189° |
| 2026-05-05 02:51 | 55.91387 | 36.93575 | 14137 ft | 324 kts | 183° |
| 2026-05-05 02:51 | 55.89130 | 36.93791 | 13886 ft | 324 kts | 180° |
| 2026-05-05 02:51 | 55.86883 | 36.94064 | 13636 ft | 323 kts | 180° |
| 2026-05-05 02:51 | 55.84672 | 36.94346 | 13389 ft | 322 kts | 180° |
| 2026-05-05 02:52 | 55.82442 | 36.94638 | 13137 ft | 320 kts | 180° |
| 2026-05-05 02:52 | 55.80221 | 36.94933 | 12886 ft | 319 kts | 180° |
| 2026-05-05 02:52 | 55.78005 | 36.95230 | 12635 ft | 318 kts | 180° |
| 2026-05-05 02:52 | 55.75797 | 36.95528 | 12384 ft | 317 kts | 180° |
| 2026-05-05 02:53 | 55.73601 | 36.95854 | 12102 ft | 317 kts | 177° |
| 2026-05-05 02:53 | 55.71423 | 36.96425 | 11751 ft | 314 kts | 175° |
| 2026-05-05 02:53 | 55.69300 | 36.97017 | 11406 ft | 311 kts | 175° |
| 2026-05-05 02:53 | 55.67185 | 36.97611 | 11073 ft | 302 kts | 175° |
| 2026-05-05 02:54 | 55.65149 | 36.98183 | 10745 ft | 291 kts | 175° |
| 2026-05-05 02:54 | 55.63178 | 36.98735 | 10416 ft | 281 kts | 175° |
| 2026-05-05 02:54 | 55.61268 | 36.99268 | 10085 ft | 276 kts | 175° |
| 2026-05-05 02:54 | 55.59375 | 36.99762 | 9764 ft | 275 kts | 178° |
| 2026-05-05 02:55 | 55.57472 | 36.99986 | 9439 ft | 271 kts | 184° |
| 2026-05-05 02:55 | 55.55594 | 36.99986 | 9113 ft | 269 kts | 185° |
| 2026-05-05 02:55 | 55.53718 | 36.99967 | 8788 ft | 269 kts | 185° |
| 2026-05-05 02:55 | 55.51872 | 36.99943 | 8463 ft | 267 kts | 185° |
| 2026-05-05 02:56 | 55.50025 | 36.99900 | 8137 ft | 265 kts | 185° |
| 2026-05-05 02:56 | 55.48185 | 36.99850 | 7813 ft | 263 kts | 185° |
| 2026-05-05 02:56 | 55.46361 | 36.99810 | 7486 ft | 260 kts | 185° |
| 2026-05-05 02:56 | 55.44559 | 36.99772 | 7158 ft | 256 kts | 185° |
| 2026-05-05 02:57 | 55.42791 | 36.99973 | 6816 ft | 257 kts | 172° |
| 2026-05-05 02:57 | 55.41156 | 37.01254 | 6482 ft | 260 kts | 149° |
| 2026-05-05 02:57 | 55.39925 | 37.03595 | 6146 ft | 263 kts | 124° |
| 2026-05-05 02:57 | 55.39135 | 37.06439 | 5847 ft | 262 kts | 118° |
| 2026-05-05 02:58 | 55.38384 | 37.09348 | 5543 ft | 259 kts | 117° |
| 2026-05-05 02:58 | 55.37662 | 37.12232 | 5336 ft | 257 kts | 117° |
| 2026-05-05 02:58 | 55.36950 | 37.15124 | 5136 ft | 256 kts | 116° |
| 2026-05-05 02:58 | 55.36245 | 37.18019 | 4937 ft | 256 kts | 116° |
| 2026-05-05 02:59 | 55.35546 | 37.20902 | 4734 ft | 256 kts | 116° |
| 2026-05-05 02:59 | 55.34858 | 37.23755 | 4536 ft | 255 kts | 116° |
| 2026-05-05 02:59 | 55.34168 | 37.26612 | 4369 ft | 253 kts | 116° |
| 2026-05-05 02:59 | 55.33485 | 37.29464 | 4204 ft | 254 kts | 115° |
| 2026-05-05 03:00 | 55.33197 | 37.32526 | 4013 ft | 258 kts | 90° |
| 2026-05-05 03:00 | 55.33675 | 37.35545 | 3837 ft | 258 kts | 62° |
| 2026-05-05 03:00 | 55.34838 | 37.37878 | 3711 ft | 253 kts | 34° |
| 2026-05-05 03:00 | 55.36396 | 37.39122 | 3608 ft | 248 kts | 14° |
| 2026-05-05 03:01 | 55.38051 | 37.39998 | 3483 ft | 247 kts | 11° |
| 2026-05-05 03:01 | 55.39702 | 37.40831 | 3358 ft | 246 kts | 11° |
| 2026-05-05 03:01 | 55.41354 | 37.41645 | 3234 ft | 246 kts | 11° |
| 2026-05-05 03:01 | 55.43006 | 37.42450 | 3109 ft | 245 kts | 10° |
| 2026-05-05 03:02 | 55.44619 | 37.43235 | 2977 ft | 237 kts | 10° |
| 2026-05-05 03:02 | 55.46181 | 37.43991 | 2843 ft | 228 kts | 10° |
| 2026-05-05 03:02 | 55.47682 | 37.44713 | 2717 ft | 225 kts | 10° |
| 2026-05-05 03:02 | 55.49180 | 37.45434 | 2626 ft | 222 kts | 10° |
| 2026-05-05 03:03 | 55.50674 | 37.46154 | 2501 ft | 223 kts | 11° |
| 2026-05-05 03:03 | 55.52165 | 37.46878 | 2378 ft | 221 kts | 11° |
| 2026-05-05 03:03 | 55.53653 | 37.47597 | 2261 ft | 220 kts | 11° |
| 2026-05-05 03:03 | 55.55105 | 37.48303 | 2211 ft | 211 kts | 11° |
| 2026-05-05 03:04 | 55.56514 | 37.48986 | 2203 ft | 209 kts | 11° |
| 2026-05-05 03:04 | 55.57918 | 37.49661 | 2201 ft | 209 kts | 10° |
| 2026-05-05 03:04 | 55.59315 | 37.49780 | 2195 ft | 190 kts | 350° |
| 2026-05-05 03:04 | 55.60521 | 37.49132 | 2212 ft | 177 kts | 339° |
| 2026-05-05 03:05 | 55.61643 | 37.48431 | 2193 ft | 165 kts | 338° |
| 2026-05-05 03:05 | 55.62674 | 37.47450 | 2185 ft | 170 kts | 314° |
| 2026-05-05 03:05 | 55.63158 | 37.45621 | 2194 ft | 159 kts | 275° |
| 2026-05-05 03:05 | 55.62974 | 37.43786 | 2230 ft | 153 kts | 254° |
| 2026-05-05 03:06 | 55.62651 | 37.41993 | 2211 ft | 152 kts | 250° |
| 2026-05-05 03:06 | 55.62296 | 37.40266 | 2030 ft | 152 kts | 249° |
| 2026-05-05 03:06 | 55.61915 | 37.38489 | 1819 ft | 150 kts | 248° |
| 2026-05-05 03:06 | 55.61543 | 37.36803 | 1618 ft | 146 kts | 247° |
| 2026-05-05 03:07 | 55.61171 | 37.35134 | 1441 ft | 145 kts | 247° |
| 2026-05-05 03:07 | 55.60800 | 37.33476 | 1254 ft | 144 kts | 247° |
| 2026-05-05 03:07 | 55.60428 | 37.31819 | 1065 ft | 145 kts | 247° |
| 2026-05-05 03:07 | 55.60057 | 37.30165 | 877 ft | 145 kts | 247° |
| 2026-05-05 03:08 | 55.59687 | 37.28514 | 705 ft | 142 kts | 247° |
| 2026-05-05 03:08 | 55.59419 | 37.27307 | 701 ft | 65 kts | 265° |
| 2026-05-05 03:08 | 55.59525 | 37.26899 | 701 ft | 30 kts | 345° |
| 2026-05-05 03:08 | 55.59641 | 37.27015 | 701 ft | 0 kts | 47° |